sensor_id;sensor_type;location;lat;lon;timestamp;pressure;altitude;pressure_sealevel;temperature;humidity
72798;BME280;61084;55.816;37.036;2024-03-23T00:54:51;98469.28;;;4.48;57.33
72798;BME280;61084;55.816;37.036;2024-03-23T00:57:17;98461.47;;;4.48;58.72
72798;BME280;61084;55.816;37.036;2024-03-23T00:59:43;98458.97;;;4.47;58.16
72798;BME280;61084;55.816;37.036;2024-03-23T01:02:09;98452.00;;;4.47;58.00
72798;BME280;61084;55.816;37.036;2024-03-23T01:04:35;98452.00;;;4.47;58.01
72798;BME280;61084;55.816;37.036;2024-03-23T01:07:01;98452.06;;;4.46;58.58
72798;BME280;61084;55.816;37.036;2024-03-23T01:09:27;98447.72;;;4.46;58.83
72798;BME280;61084;55.816;37.036;2024-03-23T01:11:52;98444.34;;;4.44;59.14
72798;BME280;61084;55.816;37.036;2024-03-23T01:14:18;98435.66;;;4.45;59.29
72798;BME280;61084;55.816;37.036;2024-03-23T01:16:44;98440.06;;;4.43;58.45
72798;BME280;61084;55.816;37.036;2024-03-23T01:19:10;98439.22;;;4.43;59.09
72798;BME280;61084;55.816;37.036;2024-03-23T01:21:36;98425.47;;;4.41;59.07
72798;BME280;61084;55.816;37.036;2024-03-23T01:24:02;98435.13;;;4.37;59.51
72798;BME280;61084;55.816;37.036;2024-03-23T01:26:27;98426.50;;;4.37;58.95
72798;BME280;61084;55.816;37.036;2024-03-23T01:28:53;98425.66;;;4.36;59.59
72798;BME280;61084;55.816;37.036;2024-03-23T01:31:19;98430.69;;;4.39;59.16
72798;BME280;61084;55.816;37.036;2024-03-23T01:33:45;98411.63;;;4.40;59.45
72798;BME280;61084;55.816;37.036;2024-03-23T01:36:11;98415.97;;;4.40;58.96
72798;BME280;61084;55.816;37.036;2024-03-23T01:38:37;98414.13;;;4.42;59.71
72798;BME280;61084;55.816;37.036;2024-03-23T01:41:02;98402.84;;;4.43;59.85
72798;BME280;61084;55.816;37.036;2024-03-23T01:43:28;98392.47;;;4.43;60.13
72798;BME280;61084;55.816;37.036;2024-03-23T01:45:54;98392.47;;;4.43;60.00
72798;BME280;61084;55.816;37.036;2024-03-23T01:48:21;98378.50;;;4.45;59.72
72798;BME280;61084;55.816;37.036;2024-03-23T01:50:47;98380.38;;;4.42;59.01
72798;BME280;61084;55.816;37.036;2024-03-23T01:53:14;98378.63;;;4.42;59.94
72798;BME280;61084;55.816;37.036;2024-03-23T01:55:43;98372.53;;;4.43;59.82
72798;BME280;61084;55.816;37.036;2024-03-23T01:58:09;98363.97;;;4.41;60.15
72798;BME280;61084;55.816;37.036;2024-03-23T02:00:36;98372.56;;;4.42;60.03
72798;BME280;61084;55.816;37.036;2024-03-23T02:03:02;98364.88;;;4.40;60.07
72798;BME280;61084;55.816;37.036;2024-03-23T02:05:28;98364.00;;;4.40;60.78
72798;BME280;61084;55.816;37.036;2024-03-23T02:07:54;98350.13;;;4.41;60.59
72798;BME280;61084;55.816;37.036;2024-03-23T02:10:20;98347.44;;;4.42;59.24
72798;BME280;61084;55.816;37.036;2024-03-23T02:12:45;98344.00;;;4.42;60.56
72798;BME280;61084;55.816;37.036;2024-03-23T02:15:12;98335.38;;;4.41;58.60
72798;BME280;61084;55.816;37.036;2024-03-23T02:17:58;98334.47;;;4.42;60.84
72798;BME280;61084;55.816;37.036;2024-03-23T02:20:23;98328.38;;;4.43;60.74
72798;BME280;61084;55.816;37.036;2024-03-23T02:22:55;98326.38;;;4.48;60.96
72798;BME280;61084;55.816;37.036;2024-03-23T02:25:21;98321.19;;;4.48;61.01
72798;BME280;61084;55.816;37.036;2024-03-23T02:27:47;98316.00;;;4.48;61.04
72798;BME280;61084;55.816;37.036;2024-03-23T02:30:13;98312.56;;;4.48;60.84
72798;BME280;61084;55.816;37.036;2024-03-23T02:32:39;98303.84;;;4.49;60.86
72798;BME280;61084;55.816;37.036;2024-03-23T02:35:05;98295.97;;;4.50;60.96
72798;BME280;61084;55.816;37.036;2024-03-23T02:37:31;98302.03;;;4.51;61.16
72798;BME280;61084;55.816;37.036;2024-03-23T02:39:58;98300.19;;;4.53;60.65
72798;BME280;61084;55.816;37.036;2024-03-23T02:42:24;98299.34;;;4.52;61.18
72798;BME280;61084;55.816;37.036;2024-03-23T02:44:50;98290.66;;;4.53;61.97
72798;BME280;61084;55.816;37.036;2024-03-23T02:47:15;98286.50;;;4.49;60.52
72798;BME280;61084;55.816;37.036;2024-03-23T02:49:41;98285.44;;;4.53;61.49
72798;BME280;61084;55.816;37.036;2024-03-23T02:52:07;98279.34;;;4.54;61.54
72798;BME280;61084;55.816;37.036;2024-03-23T02:54:33;98272.53;;;4.52;61.99
72798;BME280;61084;55.816;37.036;2024-03-23T02:56:59;98269.88;;;4.53;61.49
72798;BME280;61084;55.816;37.036;2024-03-23T02:59:25;98270.63;;;4.55;61.19
72798;BME280;61084;55.816;37.036;2024-03-23T03:01:50;98272.47;;;4.53;61.85
72798;BME280;61084;55.816;37.036;2024-03-23T03:04:16;98259.69;;;4.49;61.41
72798;BME280;61084;55.816;37.036;2024-03-23T03:06:46;98259.69;;;4.49;61.95
72798;BME280;61084;55.816;37.036;2024-03-23T03:09:12;98252.81;;;4.48;61.63
72798;BME280;61084;55.816;37.036;2024-03-23T03:11:38;98252.81;;;4.48;61.77
72798;BME280;61084;55.816;37.036;2024-03-23T03:14:04;98243.25;;;4.48;61.99
72798;BME280;61084;55.816;37.036;2024-03-23T03:16:32;98241.41;;;4.50;61.83
72798;BME280;61084;55.816;37.036;2024-03-23T03:18:58;98239.66;;;4.51;62.32
72798;BME280;61084;55.816;37.036;2024-03-23T03:21:24;98235.41;;;4.50;62.36
72798;BME280;61084;55.816;37.036;2024-03-23T03:23:50;98231.88;;;4.51;62.92
72798;BME280;61084;55.816;37.036;2024-03-23T03:26:17;98234.34;;;4.54;62.65
72798;BME280;61084;55.816;37.036;2024-03-23T03:28:43;98223.88;;;4.55;62.61
72798;BME280;61084;55.816;37.036;2024-03-23T03:31:17;98215.84;;;4.60;62.85
72798;BME280;61084;55.816;37.036;2024-03-23T03:33:44;98206.34;;;4.59;62.13
72798;BME280;61084;55.816;37.036;2024-03-23T03:36:10;98208.91;;;4.61;62.25
72798;BME280;61084;55.816;37.036;2024-03-23T03:38:36;98201.88;;;4.63;62.80
72798;BME280;61084;55.816;37.036;2024-03-23T03:41:02;98205.22;;;4.65;62.88
72798;BME280;61084;55.816;37.036;2024-03-23T03:43:28;98196.50;;;4.66;62.67
72798;BME280;61084;55.816;37.036;2024-03-23T03:45:55;98193.00;;;4.67;62.83
72798;BME280;61084;55.816;37.036;2024-03-23T03:48:21;98189.44;;;4.69;62.54
72798;BME280;61084;55.816;37.036;2024-03-23T03:50:47;98187.72;;;4.68;62.84
72798;BME280;61084;55.816;37.036;2024-03-23T03:53:13;98189.34;;;4.71;62.50
72798;BME280;61084;55.816;37.036;2024-03-23T03:55:40;98180.63;;;4.72;63.28
72798;BME280;61084;55.816;37.036;2024-03-23T03:58:06;98185.84;;;4.72;62.98
72798;BME280;61084;55.816;37.036;2024-03-23T04:00:32;98178.72;;;4.75;62.64
72798;BME280;61084;55.816;37.036;2024-03-23T04:02:58;98174.38;;;4.76;62.80
72798;BME280;61084;55.816;37.036;2024-03-23T04:05:24;98170.84;;;4.77;63.05
72798;BME280;61084;55.816;37.036;2024-03-23T04:07:50;98168.25;;;4.77;62.67
72798;BME280;61084;55.816;37.036;2024-03-23T04:10:15;98166.50;;;4.77;63.03
72798;BME280;61084;55.816;37.036;2024-03-23T04:12:43;98164.81;;;4.76;62.55
72798;BME280;61084;55.816;37.036;2024-03-23T04:15:10;98158.78;;;4.76;62.42
72798;BME280;61084;55.816;37.036;2024-03-23T04:17:36;98155.25;;;4.77;63.74
72798;BME280;61084;55.816;37.036;2024-03-23T04:20:03;98152.81;;;4.74;62.93
72798;BME280;61084;55.816;37.036;2024-03-23T04:22:35;98144.25;;;4.72;62.22
72798;BME280;61084;55.816;37.036;2024-03-23T04:25:01;98132.94;;;4.73;63.24
72798;BME280;61084;55.816;37.036;2024-03-23T04:27:33;98137.28;;;4.72;63.32
72798;BME280;61084;55.816;37.036;2024-03-23T04:30:24;98129.34;;;4.75;62.53
72798;BME280;61084;55.816;37.036;2024-03-23T04:32:53;98126.06;;;4.72;62.79
72798;BME280;61084;55.816;37.036;2024-03-23T04:35:19;98127.59;;;4.76;62.96
72798;BME280;61084;55.816;37.036;2024-03-23T04:37:47;98122.38;;;4.76;63.13
72798;BME280;61084;55.816;37.036;2024-03-23T04:40:13;98116.19;;;4.78;63.32
72798;BME280;61084;55.816;37.036;2024-03-23T04:42:39;98117.00;;;4.79;63.81
72798;BME280;61084;55.816;37.036;2024-03-23T04:45:05;98109.16;;;4.80;63.66
72798;BME280;61084;55.816;37.036;2024-03-23T04:47:32;98108.31;;;4.80;63.18
72798;BME280;61084;55.816;37.036;2024-03-23T04:49:58;98113.50;;;4.80;63.82
72798;BME280;61084;55.816;37.036;2024-03-23T04:52:24;98110.16;;;4.78;64.01
72798;BME280;61084;55.816;37.036;2024-03-23T04:54:50;98103.88;;;4.82;63.60
72798;BME280;61084;55.816;37.036;2024-03-23T04:57:16;98092.50;;;4.84;63.84
72798;BME280;61084;55.816;37.036;2024-03-23T04:59:47;98097.69;;;4.84;62.40
72798;BME280;61084;55.816;37.036;2024-03-23T05:02:14;98095.75;;;4.88;63.65
72798;BME280;61084;55.816;37.036;2024-03-23T05:04:41;98099.97;;;4.90;63.47
72798;BME280;61084;55.816;37.036;2024-03-23T05:07:08;98102.66;;;4.89;63.69
72798;BME280;61084;55.816;37.036;2024-03-23T05:09:34;98097.59;;;4.86;64.00
72798;BME280;61084;55.816;37.036;2024-03-23T05:12:00;98088.13;;;4.85;63.90
72798;BME280;61084;55.816;37.036;2024-03-23T05:14:26;98087.28;;;4.84;63.50
72798;BME280;61084;55.816;37.036;2024-03-23T05:16:53;98075.16;;;4.85;64.08
72798;BME280;61084;55.816;37.036;2024-03-23T05:19:19;98080.47;;;4.82;64.51
72798;BME280;61084;55.816;37.036;2024-03-23T05:21:45;98088.19;;;4.83;63.41
72798;BME280;61084;55.816;37.036;2024-03-23T05:24:11;98075.91;;;4.87;64.09
72798;BME280;61084;55.816;37.036;2024-03-23T05:26:38;98077.41;;;4.91;63.64
72798;BME280;61084;55.816;37.036;2024-03-23T05:29:04;98073.06;;;4.91;63.21
72798;BME280;61084;55.816;37.036;2024-03-23T05:31:31;98062.72;;;4.90;63.89
72798;BME280;61084;55.816;37.036;2024-03-23T05:33:57;98062.81;;;4.88;63.29
72798;BME280;61084;55.816;37.036;2024-03-23T05:36:23;98058.53;;;4.87;63.68
72798;BME280;61084;55.816;37.036;2024-03-23T05:38:52;98055.09;;;4.87;65.15
72798;BME280;61084;55.816;37.036;2024-03-23T05:41:18;98057.72;;;4.87;65.16
72798;BME280;61084;55.816;37.036;2024-03-23T05:43:44;98055.78;;;4.90;63.61
72798;BME280;61084;55.816;37.036;2024-03-23T05:46:10;98059.97;;;4.93;64.16
72798;BME280;61084;55.816;37.036;2024-03-23T05:48:36;98051.94;;;4.97;64.53
72798;BME280;61084;55.816;37.036;2024-03-23T05:51:02;98045.81;;;4.98;64.32
72798;BME280;61084;55.816;37.036;2024-03-23T05:53:28;98044.16;;;4.97;63.93
72798;BME280;61084;55.816;37.036;2024-03-23T05:56:03;98047.75;;;4.95;63.62
72798;BME280;61084;55.816;37.036;2024-03-23T05:58:33;98042.44;;;4.96;64.89
72798;BME280;61084;55.816;37.036;2024-03-23T06:01:00;98045.06;;;4.96;64.48
72798;BME280;61084;55.816;37.036;2024-03-23T06:03:28;98039.78;;;4.98;64.11
72798;BME280;61084;55.816;37.036;2024-03-23T06:05:55;98033.56;;;5.00;65.64
72798;BME280;61084;55.816;37.036;2024-03-23T06:08:23;98032.66;;;5.01;64.70
72798;BME280;61084;55.816;37.036;2024-03-23T06:10:51;98038.53;;;5.05;64.31
72798;BME280;61084;55.816;37.036;2024-03-23T06:13:18;98035.03;;;5.06;64.11
72798;BME280;61084;55.816;37.036;2024-03-23T06:15:44;98034.94;;;5.07;64.76
72798;BME280;61084;55.816;37.036;2024-03-23T06:18:12;98028.81;;;5.08;63.54
72798;BME280;61084;55.816;37.036;2024-03-23T06:20:38;98025.28;;;5.09;64.64
72798;BME280;61084;55.816;37.036;2024-03-23T06:23:05;98022.78;;;5.08;64.63
72798;BME280;61084;55.816;37.036;2024-03-23T06:25:31;98015.13;;;5.05;63.72
72798;BME280;61084;55.816;37.036;2024-03-23T06:27:57;98018.41;;;5.08;64.26
72798;BME280;61084;55.816;37.036;2024-03-23T06:30:24;98008.88;;;5.09;64.35
72798;BME280;61084;55.816;37.036;2024-03-23T06:32:50;98013.22;;;5.08;64.54
72798;BME280;61084;55.816;37.036;2024-03-23T06:35:16;98007.28;;;5.06;64.66
72798;BME280;61084;55.816;37.036;2024-03-23T06:37:42;98008.88;;;5.09;65.25
72798;BME280;61084;55.816;37.036;2024-03-23T06:40:08;98011.47;;;5.09;64.28
72798;BME280;61084;55.816;37.036;2024-03-23T06:42:38;98007.09;;;5.09;63.34
72798;BME280;61084;55.816;37.036;2024-03-23T06:45:04;98013.78;;;5.13;64.41
72798;BME280;61084;55.816;37.036;2024-03-23T06:47:31;98002.56;;;5.13;64.59
72798;BME280;61084;55.816;37.036;2024-03-23T06:49:59;97999.97;;;5.13;64.04
72798;BME280;61084;55.816;37.036;2024-03-23T06:52:31;97991.47;;;5.09;64.52
72798;BME280;61084;55.816;37.036;2024-03-23T06:54:57;97997.78;;;5.05;63.58
72798;BME280;61084;55.816;37.036;2024-03-23T06:57:24;97988.88;;;5.09;64.67
72798;BME280;61084;55.816;37.036;2024-03-23T06:59:50;97993.25;;;5.09;65.81
72798;BME280;61084;55.816;37.036;2024-03-23T07:02:16;97990.66;;;5.09;64.80
72798;BME280;61084;55.816;37.036;2024-03-23T07:04:42;97993.94;;;5.12;64.58
72798;BME280;61084;55.816;37.036;2024-03-23T07:07:08;97997.53;;;5.10;63.64
72798;BME280;61084;55.816;37.036;2024-03-23T07:09:34;97984.38;;;5.13;64.96
72798;BME280;61084;55.816;37.036;2024-03-23T07:12:00;97984.19;;;5.16;64.84
72798;BME280;61084;55.816;37.036;2024-03-23T07:14:26;97979.50;;;5.22;64.75
72798;BME280;61084;55.816;37.036;2024-03-23T07:16:52;97983.03;;;5.21;66.12
72798;BME280;61084;55.816;37.036;2024-03-23T07:19:18;97980.44;;;5.21;64.67
72798;BME280;61084;55.816;37.036;2024-03-23T07:21:44;97980.25;;;5.24;64.45
72798;BME280;61084;55.816;37.036;2024-03-23T07:24:11;97977.59;;;5.26;65.30
72798;BME280;61084;55.816;37.036;2024-03-23T07:26:37;97976.75;;;5.25;65.11
72798;BME280;61084;55.816;37.036;2024-03-23T07:29:04;97983.69;;;5.25;64.94
72798;BME280;61084;55.816;37.036;2024-03-23T07:31:30;97973.28;;;5.25;66.01
72798;BME280;61084;55.816;37.036;2024-03-23T07:33:56;97968.09;;;5.25;65.31
72798;BME280;61084;55.816;37.036;2024-03-23T07:36:22;97970.53;;;5.28;63.69
72798;BME280;61084;55.816;37.036;2024-03-23T07:38:47;97968.84;;;5.27;65.21
72798;BME280;61084;55.816;37.036;2024-03-23T07:41:18;97968.59;;;5.31;65.02
72798;BME280;61084;55.816;37.036;2024-03-23T07:43:46;97970.28;;;5.32;65.52
72798;BME280;61084;55.816;37.036;2024-03-23T07:46:12;97955.34;;;5.36;64.24
72798;BME280;61084;55.816;37.036;2024-03-23T07:48:38;97959.63;;;5.37;63.90
72798;BME280;61084;55.816;37.036;2024-03-23T07:51:07;97964.84;;;5.37;65.49
72798;BME280;61084;55.816;37.036;2024-03-23T07:53:35;97961.28;;;5.38;65.20
72798;BME280;61084;55.816;37.036;2024-03-23T07:56:07;97954.94;;;5.44;65.50
72798;BME280;61084;55.816;37.036;2024-03-23T07:58:34;97953.09;;;5.46;65.27
72798;BME280;61084;55.816;37.036;2024-03-23T08:01:11;97944.25;;;5.48;66.54
72798;BME280;61084;55.816;37.036;2024-03-23T08:03:38;97944.09;;;5.51;65.02
72798;BME280;61084;55.816;37.036;2024-03-23T08:06:12;97938.63;;;5.56;66.00
72798;BME280;61084;55.816;37.036;2024-03-23T08:08:40;97944.47;;;5.59;65.43
72798;BME280;61084;55.816;37.036;2024-03-23T08:11:06;97941.81;;;5.61;65.88
72798;BME280;61084;55.816;37.036;2024-03-23T08:13:33;97937.41;;;5.61;64.75
72798;BME280;61084;55.816;37.036;2024-03-23T08:16:00;97935.66;;;5.62;64.70
72798;BME280;61084;55.816;37.036;2024-03-23T08:18:27;97934.75;;;5.63;64.56
72798;BME280;61084;55.816;37.036;2024-03-23T08:21:00;97940.72;;;5.65;65.52
72798;BME280;61084;55.816;37.036;2024-03-23T08:23:32;97934.56;;;5.66;65.32
72798;BME280;61084;55.816;37.036;2024-03-23T08:26:00;97946.66;;;5.67;65.03
72798;BME280;61084;55.816;37.036;2024-03-23T08:28:27;97941.38;;;5.68;65.26
72798;BME280;61084;55.816;37.036;2024-03-23T08:30:54;97934.41;;;5.69;63.69
72798;BME280;61084;55.816;37.036;2024-03-23T08:33:20;97947.56;;;5.66;64.88
72798;BME280;61084;55.816;37.036;2024-03-23T08:36:03;97944.22;;;5.64;64.70
72798;BME280;61084;55.816;37.036;2024-03-23T08:38:29;97930.31;;;5.65;63.27
72798;BME280;61084;55.816;37.036;2024-03-23T08:41:02;97933.16;;;5.60;65.69
72798;BME280;61084;55.816;37.036;2024-03-23T08:43:29;97921.16;;;5.58;66.88
72798;BME280;61084;55.816;37.036;2024-03-23T08:46:05;97917.72;;;5.57;65.99
72798;BME280;61084;55.816;37.036;2024-03-23T08:48:31;97917.38;;;5.63;66.25
72798;BME280;61084;55.816;37.036;2024-03-23T08:51:05;97917.88;;;5.70;66.22
72798;BME280;61084;55.816;37.036;2024-03-23T08:53:31;97919.53;;;5.71;66.10
72798;BME280;61084;55.816;37.036;2024-03-23T08:55:58;97922.03;;;5.72;65.68
72798;BME280;61084;55.816;37.036;2024-03-23T08:58:25;97920.13;;;5.76;64.94
72798;BME280;61084;55.816;37.036;2024-03-23T09:00:52;97913.91;;;5.78;67.11
72798;BME280;61084;55.816;37.036;2024-03-23T09:03:18;97908.69;;;5.78;65.56
72798;BME280;61084;55.816;37.036;2024-03-23T09:05:44;97919.09;;;5.78;65.61
72798;BME280;61084;55.816;37.036;2024-03-23T09:08:10;97909.25;;;5.83;65.10
72798;BME280;61084;55.816;37.036;2024-03-23T09:10:40;97905.66;;;5.86;65.59
72798;BME280;61084;55.816;37.036;2024-03-23T09:13:06;97898.50;;;5.89;65.28
72798;BME280;61084;55.816;37.036;2024-03-23T09:15:34;97903.53;;;5.92;66.03
72798;BME280;61084;55.816;37.036;2024-03-23T09:18:01;97905.31;;;5.92;66.74
72798;BME280;61084;55.816;37.036;2024-03-23T09:20:28;97896.56;;;5.93;65.29
72798;BME280;61084;55.816;37.036;2024-03-23T09:22:54;97894.56;;;5.98;65.92
72798;BME280;61084;55.816;37.036;2024-03-23T09:25:20;97893.72;;;5.97;65.52
72798;BME280;61084;55.816;37.036;2024-03-23T09:27:46;97897.91;;;6.00;65.84
72798;BME280;61084;55.816;37.036;2024-03-23T09:30:13;97894.25;;;6.02;65.28
72798;BME280;61084;55.816;37.036;2024-03-23T09:32:41;97896.03;;;6.02;65.63
72798;BME280;61084;55.816;37.036;2024-03-23T09:35:07;97889.81;;;6.04;66.21
72798;BME280;61084;55.816;37.036;2024-03-23T09:37:33;97886.16;;;6.07;65.95
72798;BME280;61084;55.816;37.036;2024-03-23T09:39:59;97881.91;;;6.06;66.02
72798;BME280;61084;55.816;37.036;2024-03-23T09:42:25;97880.16;;;6.06;66.03
72798;BME280;61084;55.816;37.036;2024-03-23T09:44:51;97879.19;;;6.07;65.68
72798;BME280;61084;55.816;37.036;2024-03-23T09:47:18;97879.03;;;6.11;66.95
72798;BME280;61084;55.816;37.036;2024-03-23T09:49:44;97876.16;;;6.15;64.96
72798;BME280;61084;55.816;37.036;2024-03-23T09:52:10;97877.28;;;6.11;66.07
72798;BME280;61084;55.816;37.036;2024-03-23T09:54:36;97866.00;;;6.11;65.89
72798;BME280;61084;55.816;37.036;2024-03-23T09:57:03;97865.06;;;6.12;65.84
72798;BME280;61084;55.816;37.036;2024-03-23T09:59:29;97871.97;;;6.13;65.84
72798;BME280;61084;55.816;37.036;2024-03-23T10:01:55;97883.22;;;6.13;65.92
72798;BME280;61084;55.816;37.036;2024-03-23T10:04:36;97874.47;;;6.14;65.88
72798;BME280;61084;55.816;37.036;2024-03-23T10:07:17;97873.44;;;6.17;66.45
72798;BME280;61084;55.816;37.036;2024-03-23T10:09:44;97862.28;;;6.15;65.85
72798;BME280;61084;55.816;37.036;2024-03-23T10:12:11;97869.16;;;6.16;65.58
72798;BME280;61084;55.816;37.036;2024-03-23T10:14:42;97873.00;;;6.24;65.88
72798;BME280;61084;55.816;37.036;2024-03-23T10:17:22;97862.66;;;6.23;65.46
72798;BME280;61084;55.816;37.036;2024-03-23T10:19:52;97857.38;;;6.24;65.47
72798;BME280;61084;55.816;37.036;2024-03-23T10:22:20;97854.66;;;6.26;65.99
72798;BME280;61084;55.816;37.036;2024-03-23T10:24:46;97851.13;;;6.27;66.52
72798;BME280;61084;55.816;37.036;2024-03-23T10:27:15;97851.97;;;6.27;66.68
72798;BME280;61084;55.816;37.036;2024-03-23T10:29:49;97848.06;;;6.34;65.90
72798;BME280;61084;55.816;37.036;2024-03-23T10:32:18;97848.69;;;6.38;65.96
72798;BME280;61084;55.816;37.036;2024-03-23T10:34:45;97843.31;;;6.41;65.56
72798;BME280;61084;55.816;37.036;2024-03-23T10:37:11;97847.56;;;6.42;65.81
72798;BME280;61084;55.816;37.036;2024-03-23T10:39:40;97850.84;;;6.45;65.69
72798;BME280;61084;55.816;37.036;2024-03-23T10:42:07;97866.38;;;6.47;65.30
72798;BME280;61084;55.816;37.036;2024-03-23T10:44:36;97862.28;;;6.43;65.56
72798;BME280;61084;55.816;37.036;2024-03-23T10:47:04;97859.78;;;6.41;66.01
72798;BME280;61084;55.816;37.036;2024-03-23T10:49:31;97868.53;;;6.40;65.44
72798;BME280;61084;55.816;37.036;2024-03-23T10:52:05;97863.97;;;6.44;65.58
72798;BME280;61084;55.816;37.036;2024-03-23T10:54:32;97864.81;;;6.44;65.44
72798;BME280;61084;55.816;37.036;2024-03-23T10:57:15;97855.03;;;6.48;65.52
72798;BME280;61084;55.816;37.036;2024-03-23T10:59:44;97846.38;;;6.47;65.96
72798;BME280;61084;55.816;37.036;2024-03-23T11:02:20;97840.16;;;6.50;65.71
72798;BME280;61084;55.816;37.036;2024-03-23T11:04:47;97847.75;;;6.53;65.56
72798;BME280;61084;55.816;37.036;2024-03-23T11:07:31;97845.09;;;6.54;65.23
72798;BME280;61084;55.816;37.036;2024-03-23T11:09:58;97842.53;;;6.53;64.00
72798;BME280;61084;55.816;37.036;2024-03-23T11:12:28;97843.28;;;6.55;65.21
72798;BME280;61084;55.816;37.036;2024-03-23T11:15:11;97842.47;;;6.54;66.39
72798;BME280;61084;55.816;37.036;2024-03-23T11:17:37;97837.16;;;6.56;65.64
72798;BME280;61084;55.816;37.036;2024-03-23T11:20:05;97838.06;;;6.55;65.87
72798;BME280;61084;55.816;37.036;2024-03-23T11:27:44;97835.94;;;6.61;65.55
72798;BME280;61084;55.816;37.036;2024-03-23T11:30:17;97833.31;;;6.61;66.01
72798;BME280;61084;55.816;37.036;2024-03-23T11:32:45;97823.84;;;6.60;66.38
72798;BME280;61084;55.816;37.036;2024-03-23T11:35:28;97832.41;;;6.62;66.30
72798;BME280;61084;55.816;37.036;2024-03-23T11:40:40;97827.00;;;6.65;66.15
72798;BME280;61084;55.816;37.036;2024-03-23T11:43:13;97819.09;;;6.67;66.85
72798;BME280;61084;55.816;37.036;2024-03-23T11:45:50;97822.31;;;6.70;66.22
72798;BME280;61084;55.816;37.036;2024-03-23T11:48:19;97813.75;;;6.68;65.92
72798;BME280;61084;55.816;37.036;2024-03-23T11:50:53;97814.50;;;6.70;66.32
72798;BME280;61084;55.816;37.036;2024-03-23T11:53:21;97814.59;;;6.69;65.83
72798;BME280;61084;55.816;37.036;2024-03-23T11:55:52;97818.13;;;6.68;66.38
72798;BME280;61084;55.816;37.036;2024-03-23T11:58:23;97809.56;;;6.66;66.03
72798;BME280;61084;55.816;37.036;2024-03-23T12:00:50;97807.25;;;6.61;66.45
72798;BME280;61084;55.816;37.036;2024-03-23T12:03:18;97803.84;;;6.61;65.00
72798;BME280;61084;55.816;37.036;2024-03-23T12:05:51;97814.63;;;6.55;66.65
72798;BME280;61084;55.816;37.036;2024-03-23T12:08:39;97817.50;;;6.50;67.16
72798;BME280;61084;55.816;37.036;2024-03-23T12:11:13;97813.25;;;6.49;66.54
72798;BME280;61084;55.816;37.036;2024-03-23T12:13:41;97807.84;;;6.52;66.08
72798;BME280;61084;55.816;37.036;2024-03-23T12:18:43;97807.66;;;6.55;66.45
72798;BME280;61084;55.816;37.036;2024-03-23T12:21:09;97810.91;;;6.59;66.60
72798;BME280;61084;55.816;37.036;2024-03-23T12:23:38;97808.31;;;6.59;66.18
72798;BME280;61084;55.816;37.036;2024-03-23T12:26:04;97811.84;;;6.58;65.99
72798;BME280;61084;55.816;37.036;2024-03-23T12:28:30;97809.13;;;6.59;65.29
72798;BME280;61084;55.816;37.036;2024-03-23T12:30:56;97804.75;;;6.60;65.92
72798;BME280;61084;55.816;37.036;2024-03-23T12:33:22;97805.59;;;6.60;66.37
72798;BME280;61084;55.816;37.036;2024-03-23T12:35:48;97804.75;;;6.60;66.06
72798;BME280;61084;55.816;37.036;2024-03-23T12:38:15;97815.28;;;6.58;66.34
72798;BME280;61084;55.816;37.036;2024-03-23T12:40:41;97803.28;;;6.56;66.23
72798;BME280;61084;55.816;37.036;2024-03-23T12:43:07;97807.75;;;6.54;66.59
72798;BME280;61084;55.816;37.036;2024-03-23T12:45:33;97807.66;;;6.55;66.18
72798;BME280;61084;55.816;37.036;2024-03-23T12:47:59;97807.53;;;6.57;66.29
72798;BME280;61084;55.816;37.036;2024-03-23T12:50:25;97807.34;;;6.60;66.31
72798;BME280;61084;55.816;37.036;2024-03-23T12:52:51;97805.78;;;6.57;66.15
72798;BME280;61084;55.816;37.036;2024-03-23T12:55:17;97805.88;;;6.56;66.20
72798;BME280;61084;55.816;37.036;2024-03-23T12:57:44;97809.69;;;6.50;66.10
72798;BME280;61084;55.816;37.036;2024-03-23T13:00:10;97797.59;;;6.49;66.02
72798;BME280;61084;55.816;37.036;2024-03-23T13:02:38;97800.22;;;6.49;66.83
72798;BME280;61084;55.816;37.036;2024-03-23T13:05:05;97801.63;;;6.41;67.17
72798;BME280;61084;55.816;37.036;2024-03-23T13:07:31;97796.50;;;6.39;66.82
72798;BME280;61084;55.816;37.036;2024-03-23T13:09:57;97798.81;;;6.44;67.40
72798;BME280;61084;55.816;37.036;2024-03-23T13:12:23;97788.22;;;6.47;67.07
72798;BME280;61084;55.816;37.036;2024-03-23T13:14:49;97796.03;;;6.47;66.85
72798;BME280;61084;55.816;37.036;2024-03-23T13:17:15;97797.72;;;6.48;66.51
72798;BME280;61084;55.816;37.036;2024-03-23T13:19:41;97791.56;;;6.49;66.50
72798;BME280;61084;55.816;37.036;2024-03-23T13:22:07;97793.31;;;6.48;66.70
72798;BME280;61084;55.816;37.036;2024-03-23T13:24:33;97786.22;;;6.50;66.46
72798;BME280;61084;55.816;37.036;2024-03-23T13:26:59;97793.13;;;6.51;66.62
72798;BME280;61084;55.816;37.036;2024-03-23T13:29:25;97783.44;;;6.53;66.48
72798;BME280;61084;55.816;37.036;2024-03-23T13:31:52;97786.91;;;6.54;66.64
72798;BME280;61084;55.816;37.036;2024-03-23T13:34:18;97785.13;;;6.54;66.71
72798;BME280;61084;55.816;37.036;2024-03-23T13:36:45;97787.63;;;6.56;66.86
72798;BME280;61084;55.816;37.036;2024-03-23T13:39:12;97787.75;;;6.54;66.49
72798;BME280;61084;55.816;37.036;2024-03-23T13:41:42;97790.41;;;6.53;67.33
72798;BME280;61084;55.816;37.036;2024-03-23T13:44:10;97780.00;;;6.53;66.22
72798;BME280;61084;55.816;37.036;2024-03-23T13:46:37;97790.63;;;6.50;67.02
72798;BME280;61084;55.816;37.036;2024-03-23T13:49:04;97776.75;;;6.49;67.04
72798;BME280;61084;55.816;37.036;2024-03-23T13:51:30;97787.28;;;6.48;66.68
72798;BME280;61084;55.816;37.036;2024-03-23T13:53:56;97779.66;;;6.45;67.15
72798;BME280;61084;55.816;37.036;2024-03-23T13:56:23;97784.00;;;6.44;67.38
72798;BME280;61084;55.816;37.036;2024-03-23T13:58:49;97791.09;;;6.42;67.44
72798;BME280;61084;55.816;37.036;2024-03-23T14:01:15;97791.19;;;6.41;67.50
72798;BME280;61084;55.816;37.036;2024-03-23T14:03:44;97790.34;;;6.40;67.68
72798;BME280;61084;55.816;37.036;2024-03-23T14:06:11;97794.53;;;6.43;67.52